Time;durP1;ratioP1;P1;durP2;ratioP2;P2;SDS_P1;SDS_P2;PMS_P1;PMS_P2;Temp;Humidity;BMP_temperature;BMP_pressure;BME280_temperature;BME280_humidity;BME280_pressure;Samples;Min_cycle;Max_cycle;Signal;HPM_P1;HPM_P2
2023/12/31 00:01:24;;;;;;;;;17.33;9.67;;;;;10.25;83.40;99998.44;4977012;28;45676;-51
2023/12/31 00:03:49;;;;;;;;;9.00;7.67;;;;;10.32;83.10;99969.34;4977382;28;45472;-46
2023/12/31 00:06:15;;;;;;;;;10.00;10.00;;;;;10.29;82.91;99959.91;4977152;28;46167;-50
2023/12/31 00:08:40;;;;;;;;;6.00;6.00;;;;;10.26;83.15;99946.94;4975628;28;45371;-48
2023/12/31 00:11:05;;;;;;;;;7.33;7.00;;;;;10.31;82.85;99944.59;4976867;28;45370;-48
2023/12/31 00:13:31;;;;;;;;;7.67;7.67;;;;;10.31;83.12;99930.50;4977066;28;45430;-45
2023/12/31 00:15:56;;;;;;;;;9.33;8.67;;;;;10.29;83.45;99933.31;4976699;28;46463;-45
2023/12/31 00:18:21;;;;;;;;;7.00;7.00;;;;;10.29;83.83;99930.66;4976680;28;45333;-45
2023/12/31 00:20:47;;;;;;;;;8.33;8.33;;;;;10.29;83.53;99917.38;4976608;28;45372;-45
2023/12/31 00:23:13;;;;;;;;;10.33;8.00;;;;;10.31;83.34;99926.00;4977189;28;45303;-53
2023/12/31 00:25:39;;;;;;;;;9.00;9.00;;;;;10.29;83.44;99906.75;4976610;28;46901;-48
2023/12/31 00:28:04;;;;;;;;;11.00;9.67;;;;;10.30;83.58;99894.28;4976534;28;45455;-46
2023/12/31 00:30:29;;;;;;;;;12.00;8.00;;;;;10.29;83.67;99897.94;4976696;28;45358;-45
2023/12/31 00:32:55;;;;;;;;;10.00;6.33;;;;;10.31;83.85;99898.59;4976793;28;45501;-43
2023/12/31 00:35:20;;;;;;;;;9.00;5.67;;;;;10.31;83.81;99893.28;4976349;28;46036;-44
2023/12/31 00:37:46;;;;;;;;;11.00;11.00;;;;;10.29;84.29;99872.19;4979881;28;45300;-44
2023/12/31 00:40:12;;;;;;;;;15.00;13.33;;;;;10.29;83.95;99860.72;4980231;28;45348;-44
2023/12/31 00:42:37;;;;;;;;;9.33;8.00;;;;;10.27;84.39;99876.00;4980205;28;45324;-52
2023/12/31 00:45:03;;;;;;;;;10.33;7.00;;;;;10.22;84.30;99864.00;4979899;28;46231;-47
2023/12/31 00:47:28;;;;;;;;;18.67;14.33;;;;;10.29;84.67;99868.69;4979914;28;45341;-52
2023/12/31 00:49:53;;;;;;;;;13.67;11.33;;;;;10.22;84.53;99841.91;4979602;28;45264;-51
2023/12/31 00:52:18;;;;;;;;;8.33;8.33;;;;;10.25;84.79;99841.63;4979823;28;45502;-46
2023/12/31 00:54:44;;;;;;;;;15.00;11.00;;;;;10.31;84.85;99835.63;4979707;28;45369;-50
2023/12/31 00:57:09;;;;;;;;;21.00;12.00;;;;;10.30;84.30;99833.13;4980131;28;45423;-49
2023/12/31 00:59:35;;;;;;;;;14.00;11.67;;;;;10.35;84.60;99831.63;4979857;28;45520;-45
2023/12/31 01:02:00;;;;;;;;;14.67;10.67;;;;;10.37;84.18;99828.81;4979953;28;45349;-45
2023/12/31 01:04:25;;;;;;;;;18.00;11.33;;;;;10.38;84.71;99836.63;4979397;28;46204;-51
2023/12/31 01:06:51;;;;;;;;;16.67;10.67;;;;;10.38;84.31;99830.47;4979525;28;45321;-47
2023/12/31 01:09:16;;;;;;;;;9.67;9.33;;;;;10.39;84.16;99816.19;4979806;28;45826;-43
2023/12/31 01:11:41;;;;;;;;;16.67;8.67;;;;;10.40;84.45;99813.34;4980051;28;45378;-49
2023/12/31 01:14:07;;;;;;;;;13.00;8.67;;;;;10.39;84.10;99797.56;4979520;28;46100;-44
2023/12/31 01:16:32;;;;;;;;;16.00;8.00;;;;;10.38;83.93;99783.44;4979292;28;45468;-50
2023/12/31 01:18:57;;;;;;;;;11.00;9.67;;;;;10.33;84.01;99771.66;4979517;28;45842;-44
2023/12/31 01:21:23;;;;;;;;;9.00;9.00;;;;;10.37;83.92;99776.47;4979594;28;45358;-49
2023/12/31 01:23:48;;;;;;;;;14.00;7.67;;;;;10.38;84.10;99777.31;4979162;28;49523;-51
2023/12/31 01:26:14;;;;;;;;;10.00;9.00;;;;;10.35;83.85;99773.13;4979457;28;45369;-46
2023/12/31 01:28:39;;;;;;;;;9.00;7.00;;;;;10.35;83.84;99780.28;4978153;28;45542;-46
2023/12/31 01:31:05;;;;;;;;;11.00;9.00;;;;;10.35;83.92;99746.56;4979491;28;45529;-47
2023/12/31 01:33:30;;;;;;;;;12.67;8.00;;;;;10.35;83.94;99737.75;4979153;28;45372;-50
2023/12/31 01:35:55;;;;;;;;;10.67;6.67;;;;;10.36;83.59;99742.06;4979127;28;45310;-52
2023/12/31 01:38:21;;;;;;;;;11.33;10.00;;;;;10.35;83.88;99762.50;4979173;28;45705;-47
2023/12/31 01:40:53;;;;;;;;;8.00;6.00;;;;;10.36;83.57;99750.88;4979536;28;45420;-51
2023/12/31 01:43:19;;;;;;;;;11.67;9.33;;;;;10.33;83.35;99714.00;4979286;28;46361;-48
2023/12/31 01:45:45;;;;;;;;;14.00;13.00;;;;;10.31;83.72;99702.69;4979122;28;45422;-45
2023/12/31 01:48:11;;;;;;;;;9.33;7.00;;;;;10.18;83.46;99675.81;4978330;28;45257;-43
2023/12/31 01:50:37;;;;;;;;;16.67;10.00;;;;;10.34;83.72;99713.00;4977798;28;45327;-50
2023/12/31 01:53:03;;;;;;;;;15.33;11.00;;;;;10.37;83.52;99725.13;4978537;28;46400;-47
2023/12/31 01:55:30;;;;;;;;;12.00;8.00;;;;;10.35;83.48;99704.03;4978890;28;45225;-49
2023/12/31 01:57:55;;;;;;;;;11.67;8.33;;;;;10.36;83.11;99705.66;4978953;28;45455;-50
2023/12/31 02:00:20;;;;;;;;;22.00;16.67;;;;;10.35;83.15;99705.84;4979048;28;45426;-50
2023/12/31 02:02:48;;;;;;;;;11.00;8.33;;;;;10.38;82.97;99692.22;4978899;28;45866;-48
2023/12/31 02:05:14;;;;;;;;;13.67;8.67;;;;;10.41;82.96;99675.94;4978735;28;45370;-51
2023/12/31 02:07:39;;;;;;;;;11.33;7.67;;;;;10.40;82.87;99669.78;4978774;28;45276;-50
2023/12/31 02:10:05;;;;;;;;;8.00;6.00;;;;;10.40;82.54;99659.13;4979226;28;45495;-49
2023/12/31 02:12:31;;;;;;;;;12.00;6.00;;;;;10.40;82.31;99653.81;4978530;28;45412;-51
2023/12/31 02:14:56;;;;;;;;;4.33;4.33;;;;;10.42;82.53;99673.09;4978607;28;45291;-50
2023/12/31 02:17:21;;;;;;;;;11.67;8.33;;;;;10.38;82.32;99649.69;4978794;28;45263;-49
2023/12/31 02:19:46;;;;;;;;;8.67;8.00;;;;;10.43;82.27;99631.38;4978564;28;45379;-49
2023/12/31 02:22:13;;;;;;;;;7.33;3.33;;;;;10.41;81.97;99638.72;4978500;28;49690;-51
2023/12/31 02:24:48;;;;;;;;;9.33;7.00;;;;;10.44;82.10;99644.50;4978404;28;45178;-46
2023/12/31 02:27:17;;;;;;;;;8.33;7.00;;;;;10.47;82.19;99627.38;4978701;28;45282;-47
2023/12/31 02:29:42;;;;;;;;;8.00;8.00;;;;;10.48;81.61;99616.56;4978650;28;45303;-47
2023/12/31 02:32:08;;;;;;;;;8.00;5.67;;;;;10.47;81.65;99593.66;4978190;28;46204;-50
2023/12/31 02:34:33;;;;;;;;;12.67;8.00;;;;;10.47;81.83;99612.25;4978220;28;45537;-50
2023/12/31 02:36:59;;;;;;;;;6.67;6.00;;;;;10.48;81.54;99610.41;4978169;28;45366;-50
2023/12/31 02:39:25;;;;;;;;;7.00;7.00;;;;;10.47;81.42;99595.47;4978608;28;45489;-50
2023/12/31 02:41:50;;;;;;;;;7.00;6.00;;;;;10.44;81.57;99595.81;4978189;28;46282;-50
2023/12/31 02:44:16;;;;;;;;;6.00;6.00;;;;;10.46;81.50;99577.88;4978056;28;45358;-50
2023/12/31 02:46:41;;;;;;;;;8.00;7.00;;;;;10.45;81.53;99590.34;4978543;28;45729;-51
2023/12/31 02:49:08;;;;;;;;;11.00;8.67;;;;;10.45;81.35;99584.19;4978340;28;45431;-49
2023/12/31 02:51:34;;;;;;;;;8.00;7.00;;;;;10.35;81.58;99563.13;4978016;28;46582;-52
2023/12/31 02:54:00;;;;;;;;;7.67;7.00;;;;;10.51;81.61;99604.75;4978020;28;45228;-50
2023/12/31 02:56:25;;;;;;;;;10.67;6.33;;;;;10.54;80.79;99588.47;4977988;28;45470;-46
2023/12/31 02:58:51;;;;;;;;;9.67;7.00;;;;;10.58;81.02;99588.94;4978037;28;45575;-49
2023/12/31 03:01:16;;;;;;;;;5.00;5.00;;;;;10.43;80.89;99567.59;4977743;28;46990;-49
2023/12/31 03:03:41;;;;;;;;;7.00;6.33;;;;;10.64;80.43;99597.03;4978026;28;45343;-49
2023/12/31 03:06:07;;;;;;;;;7.67;3.00;;;;;10.68;80.12;99579.72;4977802;28;45383;-50
2023/12/31 03:08:32;;;;;;;;;8.33;4.00;;;;;10.72;79.58;99572.22;4978140;28;45360;-51
2023/12/31 03:10:57;;;;;;;;;5.67;5.00;;;;;10.75;80.10;99574.56;4977564;28;45853;-50
2023/12/31 03:13:23;;;;;;;;;8.00;4.00;;;;;10.80;79.74;99579.34;4977654;28;46289;-52
2023/12/31 03:15:48;;;;;;;;;6.33;6.00;;;;;10.84;79.15;99562.84;4977953;28;45452;-51
2023/12/31 03:18:13;;;;;;;;;4.33;2.33;;;;;10.87;78.91;99558.97;4978266;28;45391;-50
2023/12/31 03:20:39;;;;;;;;;7.67;4.00;;;;;10.91;79.32;99565.59;4977343;28;45359;-50
2023/12/31 03:23:04;;;;;;;;;6.33;4.00;;;;;10.88;78.95;99558.81;4978458;28;45466;-46
2023/12/31 03:25:29;;;;;;;;;4.67;3.00;;;;;10.98;78.92;99537.28;4978098;28;45650;-51
2023/12/31 03:27:55;;;;;;;;;10.00;6.00;;;;;11.01;79.35;99534.28;4977904;28;45287;-52
2023/12/31 03:30:20;;;;;;;;;5.33;3.33;;;;;10.91;79.50;99488.44;4977438;28;46691;-49
2023/12/31 03:32:45;;;;;;;;;11.00;6.67;;;;;11.04;79.69;99523.28;4977406;28;45244;-47
2023/12/31 03:35:11;;;;;;;;;7.67;5.33;;;;;11.06;79.13;99507.13;4977671;28;45463;-50
2023/12/31 03:37:36;;;;;;;;;7.00;6.00;;;;;11.08;78.97;99502.44;4977624;28;45204;-50
2023/12/31 03:40:03;;;;;;;;;3.00;3.00;;;;;11.10;78.74;99519.06;4976125;28;46123;-49
2023/12/31 03:42:29;;;;;;;;;3.00;3.00;;;;;11.12;78.46;99499.22;4977397;28;45321;-50
2023/12/31 03:44:54;;;;;;;;;6.00;5.00;;;;;11.18;77.85;99482.56;4977391;28;45418;-52
2023/12/31 03:47:19;;;;;;;;;5.33;3.00;;;;;11.20;78.21;99485.84;4977457;28;45378;-45
2023/12/31 03:49:45;;;;;;;;;6.67;2.67;;;;;11.24;77.24;99489.81;4977194;28;46141;-51
2023/12/31 03:52:10;;;;;;;;;5.33;4.67;;;;;11.30;76.99;99474.13;4977072;28;48452;-47
2023/12/31 03:54:39;;;;;;;;;3.00;3.00;;;;;11.35;77.26;99477.88;4977343;28;45483;-51
2023/12/31 03:57:04;;;;;;;;;0.00;0.00;;;;;11.38;77.31;99488.19;4976296;28;45357;-50
2023/12/31 03:59:29;;;;;;;;;2.33;2.00;;;;;11.41;78.03;99478.97;4977163;28;45339;-51
2023/12/31 04:01:58;;;;;;;;;3.33;1.67;;;;;11.40;78.29;99462.19;4977185;28;45355;-52
2023/12/31 04:04:23;;;;;;;;;3.00;3.00;;;;;11.35;78.86;99472.56;4977153;28;45279;-52
2023/12/31 04:06:48;;;;;;;;;7.67;5.33;;;;;11.33;79.80;99471.09;4977167;28;45450;-49
2023/12/31 04:09:14;;;;;;;;;4.00;3.67;;;;;11.30;79.92;99474.13;4976889;28;46277;-50
2023/12/31 04:11:40;;;;;;;;;3.00;3.00;;;;;11.26;80.12;99478.16;4976635;28;45304;-47
2023/12/31 04:14:05;;;;;;;;;5.00;2.33;;;;;11.27;79.90;99496.59;4977058;28;45228;-44
2023/12/31 04:16:30;;;;;;;;;2.67;2.67;;;;;11.19;82.85;99496.69;4975845;28;45550;-46
2023/12/31 04:18:56;;;;;;;;;2.00;2.00;;;;;11.15;81.45;99512.19;4976915;28;46191;-50
2023/12/31 04:21:21;;;;;;;;;1.67;1.67;;;;;11.10;81.41;99497.78;4976726;28;45319;-42
2023/12/31 04:23:47;;;;;;;;;3.00;3.00;;;;;11.05;81.69;99490.34;4977115;28;45413;-48
2023/12/31 04:26:12;;;;;;;;;3.00;3.00;;;;;11.01;81.54;99470.41;4977272;28;45338;-50
2023/12/31 04:28:37;;;;;;;;;1.67;1.67;;;;;10.95;80.93;99455.16;4976882;28;45890;-49
2023/12/31 04:31:03;;;;;;;;;1.33;0.67;;;;;10.90;80.95;99436.25;4976648;28;45315;-47
2023/12/31 04:33:28;;;;;;;;;2.00;1.00;;;;;10.83;80.89;99436.16;4977422;28;45404;-42
2023/12/31 04:35:54;;;;;;;;;1.00;1.00;;;;;10.78;80.71;99433.19;4976807;28;45403;-49
2023/12/31 04:38:19;;;;;;;;;0.00;0.00;;;;;10.77;80.43;99439.53;4976570;28;45470;-51
2023/12/31 04:40:44;;;;;;;;;1.00;0.00;;;;;10.69;80.25;99461.69;4976749;28;45363;-44
2023/12/31 04:43:10;;;;;;;;;0.00;0.00;;;;;10.66;80.28;99440.78;4976742;28;45453;-48
2023/12/31 04:45:35;;;;;;;;;1.00;0.00;;;;;10.62;80.43;99444.81;4975607;28;45451;-49
2023/12/31 04:48:01;;;;;;;;;0.00;0.00;;;;;10.59;80.00;99441.69;4976619;28;45382;-47
2023/12/31 04:50:26;;;;;;;;;1.00;0.00;;;;;10.53;79.88;99434.41;4976421;28;45428;-52
2023/12/31 04:52:51;;;;;;;;;0.00;0.00;;;;;10.49;79.94;99456.06;4976767;28;45326;-49
2023/12/31 04:55:17;;;;;;;;;0.00;0.00;;;;;10.43;80.43;99446.09;4976819;28;45447;-52
2023/12/31 04:57:42;;;;;;;;;0.00;0.00;;;;;10.45;79.84;99437.97;4975329;28;47035;-47
2023/12/31 05:00:08;;;;;;;;;0.00;0.00;;;;;10.40;80.04;99457.09;4976635;28;45284;-49
2023/12/31 05:02:33;;;;;;;;;0.00;0.00;;;;;10.39;80.00;99451.97;4976209;28;45375;-44
2023/12/31 05:04:59;;;;;;;;;0.00;0.00;;;;;10.37;80.10;99448.66;4976859;28;45349;-46
2023/12/31 05:07:24;;;;;;;;;1.00;0.00;;;;;10.38;80.15;99445.00;4976103;28;45965;-49
2023/12/31 05:09:49;;;;;;;;;2.00;0.00;;;;;10.37;79.94;99446.00;4976294;28;45370;-46
2023/12/31 05:12:15;;;;;;;;;0.00;0.00;;;;;10.36;79.83;99449.66;4976597;28;45348;-46
2023/12/31 05:14:40;;;;;;;;;0.00;0.00;;;;;10.36;79.91;99452.31;4976382;28;45546;-42
2023/12/31 05:17:05;;;;;;;;;2.00;0.00;;;;;10.33;80.01;99453.50;4976286;28;46097;-46
2023/12/31 05:19:32;;;;;;;;;0.00;0.00;;;;;10.20;79.28;99416.84;4976113;28;45343;-45
2023/12/31 05:21:57;;;;;;;;;0.00;0.00;;;;;10.31;79.62;99428.91;4976920;28;45445;-44
2023/12/31 05:24:22;;;;;;;;;2.00;0.00;;;;;10.32;79.18;99440.38;4979888;28;45315;-44
2023/12/31 05:26:47;;;;;;;;;0.00;0.00;;;;;10.28;78.62;99426.63;4979544;28;45502;-43
2023/12/31 05:29:13;;;;;;;;;0.67;0.00;;;;;10.29;78.28;99433.59;4978685;28;45383;-53
2023/12/31 05:31:38;;;;;;;;;0.00;0.00;;;;;10.25;77.27;99440.28;4979570;28;45326;-51
2023/12/31 05:34:03;;;;;;;;;1.00;0.00;;;;;10.26;77.85;99449.91;4979558;28;45337;-48
2023/12/31 05:36:29;;;;;;;;;1.00;0.00;;;;;10.19;77.63;99428.47;4979086;28;47057;-49
2023/12/31 05:38:54;;;;;;;;;0.00;0.00;;;;;10.23;77.21;99432.44;4979277;28;45459;-47
2023/12/31 05:41:19;;;;;;;;;0.00;0.00;;;;;10.22;77.44;99446.72;4979319;28;45306;-51
2023/12/31 05:43:45;;;;;;;;;1.00;0.00;;;;;10.22;76.66;99420.16;4979772;28;45514;-45
2023/12/31 05:46:10;;;;;;;;;1.33;0.00;;;;;10.19;76.82;99424.97;4979239;28;45965;-46
2023/12/31 05:48:35;;;;;;;;;0.00;0.00;;;;;10.20;76.39;99406.22;4979308;28;45348;-44
2023/12/31 05:51:01;;;;;;;;;1.00;0.00;;;;;10.14;76.30;99398.94;4979137;28;45299;-47
2023/12/31 05:53:26;;;;;;;;;0.00;0.00;;;;;10.18;76.38;99389.63;4979491;28;45431;-45
2023/12/31 05:55:51;;;;;;;;;0.00;0.00;;;;;10.15;75.92;99395.28;4978917;28;47852;-46
2023/12/31 05:58:17;;;;;;;;;0.00;0.00;;;;;10.13;76.33;99391.16;4979199;28;45313;-45
2023/12/31 06:00:42;;;;;;;;;0.00;0.00;;;;;10.10;76.18;99396.81;4979201;28;45228;-44
2023/12/31 06:03:07;;;;;;;;;0.67;0.67;;;;;10.05;76.04;99397.34;4978079;28;45431;-45
2023/12/31 06:05:33;;;;;;;;;0.00;0.00;;;;;10.04;75.87;99401.00;4978963;28;46301;-46
2023/12/31 06:07:58;;;;;;;;;0.67;0.00;;;;;10.01;76.25;99414.63;4978716;28;45206;-45
2023/12/31 06:10:24;;;;;;;;;0.00;0.00;;;;;10.01;76.04;99411.97;4978937;28;45319;-45
2023/12/31 06:12:52;;;;;;;;;0.00;0.00;;;;;9.98;75.95;99417.63;4979201;28;45292;-45
2023/12/31 06:15:17;;;;;;;;;0.50;0.00;;;;;9.96;75.79;99438.25;4978868;28;45634;-42
2023/12/31 06:17:42;;;;;;;;;0.00;0.00;;;;;9.82;75.86;99397.34;4978925;28;45351;-44
2023/12/31 06:20:09;;;;;;;;;0.00;0.00;;;;;9.95;75.13;99425.97;4979291;28;45423;-48
2023/12/31 06:22:35;;;;;;;;;1.00;0.00;;;;;9.94;75.20;99405.72;4978797;28;45340;-44
2023/12/31 06:25:00;;;;;;;;;0.00;0.00;;;;;9.82;74.84;99409.75;4978503;28;45854;-47
2023/12/31 06:27:26;;;;;;;;;0.00;0.00;;;;;9.96;75.32;99432.94;4978740;28;45526;-46
2023/12/31 06:29:52;;;;;;;;;0.00;0.00;;;;;9.98;75.38;99431.75;4978895;28;45231;-45
2023/12/31 06:32:19;;;;;;;;;1.00;0.00;;;;;9.97;74.32;99437.25;4978812;28;45379;-45
2023/12/31 06:34:44;;;;;;;;;1.67;0.00;;;;;9.95;74.71;99450.72;4978306;28;46366;-44
2023/12/31 06:37:10;;;;;;;;;0.00;0.00;;;;;9.92;73.83;99480.28;4978153;28;46949;-47
2023/12/31 06:39:36;;;;;;;;;0.00;0.00;;;;;9.97;73.30;99471.78;4978464;28;45431;-50
2023/12/31 06:42:01;;;;;;;;;0.00;0.00;;;;;10.00;73.92;99474.09;4978559;28;45274;-46
2023/12/31 06:44:28;;;;;;;;;0.00;0.00;;;;;9.97;73.50;99455.84;4978136;28;46943;-46
2023/12/31 06:46:54;;;;;;;;;0.00;0.00;;;;;10.04;73.46;99503.81;4978287;28;45404;-50
2023/12/31 06:49:19;;;;;;;;;0.00;0.00;;;;;10.03;72.69;99500.31;4978542;28;45443;-45
2023/12/31 06:51:44;;;;;;;;;1.00;0.00;;;;;10.02;73.36;99490.69;4978566;28;45463;-52
2023/12/31 06:54:09;;;;;;;;;0.00;0.00;;;;;10.03;72.78;99480.88;4978371;28;46143;-51
2023/12/31 06:56:35;;;;;;;;;0.00;0.00;;;;;10.03;73.02;99481.72;4976581;28;51333;-46
2023/12/31 06:59:00;;;;;;;;;0.50;0.00;;;;;10.00;72.65;99485.53;4978294;28;45515;-51
2023/12/31 07:01:25;;;;;;;;;0.00;0.00;;;;;9.98;72.63;99484.88;4978538;28;45581;-54
2023/12/31 07:03:51;;;;;;;;;0.00;0.00;;;;;9.97;72.69;99507.13;4977979;28;47260;-51
2023/12/31 07:06:16;;;;;;;;;0.00;0.00;;;;;9.98;72.79;99526.56;4978195;28;45289;-52
2023/12/31 07:08:41;;;;;;;;;2.00;0.00;;;;;9.95;72.67;99519.78;4977903;28;45569;-53
2023/12/31 07:11:07;;;;;;;;;0.00;0.00;;;;;9.84;72.73;99506.88;4978058;28;45439;-54
2023/12/31 07:13:32;;;;;;;;;0.00;0.00;;;;;9.93;73.44;99534.22;4977806;28;45326;-53
2023/12/31 07:15:58;;;;;;;;;0.00;0.00;;;;;9.90;73.00;99547.84;4977918;28;45347;-53
2023/12/31 07:18:24;;;;;;;;;0.00;0.00;;;;;9.85;73.20;99547.53;4977858;28;45469;-53
2023/12/31 07:20:49;;;;;;;;;1.67;0.00;;;;;9.80;72.89;99565.81;4977882;28;45307;-53
2023/12/31 07:23:14;;;;;;;;;0.00;0.00;;;;;9.77;73.57;99566.97;4977413;28;46263;-49
2023/12/31 07:25:40;;;;;;;;;0.00;0.00;;;;;9.73;73.80;99558.53;4977473;28;45370;-53
2023/12/31 07:28:05;;;;;;;;;0.00;0.00;;;;;9.69;73.68;99567.00;4977440;28;45287;-51
2023/12/31 07:30:31;;;;;;;;;0.00;0.00;;;;;9.66;73.63;99562.88;4977621;28;45285;-53
2023/12/31 07:32:56;;;;;;;;;0.00;0.00;;;;;9.64;73.83;99574.66;4977467;28;46239;-52
2023/12/31 07:35:21;;;;;;;;;0.00;0.00;;;;;9.61;74.21;99586.44;4977286;28;45387;-51
2023/12/31 07:37:47;;;;;;;;;0.67;0.00;;;;;9.58;74.12;99592.09;4976885;28;45498;-46
2023/12/31 07:40:13;;;;;;;;;0.00;0.00;;;;;9.53;74.00;99577.66;4977377;28;45481;-52
2023/12/31 07:42:38;;;;;;;;;3.00;0.00;;;;;9.57;73.75;99598.41;4976930;28;46348;-53
2023/12/31 07:45:07;;;;;;;;;0.00;0.00;;;;;9.47;74.17;99595.09;4976435;28;45499;-53
2023/12/31 07:47:35;;;;;;;;;0.00;0.00;;;;;9.48;74.07;99610.84;4977144;28;45351;-44
2023/12/31 07:50:02;;;;;;;;;0.00;0.00;;;;;9.46;74.17;99631.41;4977248;28;45335;-51
2023/12/31 07:52:28;;;;;;;;;3.00;0.00;;;;;9.46;74.09;99647.34;4976643;28;46365;-52
2023/12/31 07:54:53;;;;;;;;;0.00;0.00;;;;;9.46;74.39;99667.75;4977016;28;45330;-52
2023/12/31 07:57:19;;;;;;;;;1.00;0.00;;;;;9.45;74.43;99677.56;4977072;28;45440;-52
2023/12/31 07:59:44;;;;;;;;;1.67;0.00;;;;;9.45;74.63;99676.72;4977247;28;45453;-54
2023/12/31 08:02:09;;;;;;;;;1.33;0.00;;;;;9.45;74.61;99682.84;4977029;28;45621;-54
2023/12/31 08:04:35;;;;;;;;;3.33;0.00;;;;;9.41;74.21;99678.03;4976481;28;45450;-53
2023/12/31 08:07:00;;;;;;;;;2.00;0.00;;;;;9.43;74.83;99684.00;4977149;28;45856;-52
2023/12/31 08:09:25;;;;;;;;;2.00;1.00;;;;;9.45;74.42;99696.13;4977259;28;45393;-44
2023/12/31 08:11:51;;;;;;;;;0.00;0.00;;;;;9.44;74.26;99694.47;4977065;28;46230;-53
2023/12/31 08:14:16;;;;;;;;;3.00;0.67;;;;;9.40;74.89;99700.28;4977041;28;45427;-53
2023/12/31 08:16:41;;;;;;;;;2.00;0.00;;;;;9.51;74.71;99702.59;4976964;28;45355;-54
2023/12/31 08:19:07;;;;;;;;;0.67;0.00;;;;;9.44;74.46;99691.00;4977262;28;45335;-50
2023/12/31 08:21:33;;;;;;;;;0.67;0.00;;;;;9.50;74.58;99715.03;4976661;28;45454;-51
2023/12/31 08:23:58;;;;;;;;;2.33;0.00;;;;;9.51;74.10;99705.25;4976704;28;45484;-52
2023/12/31 08:26:25;;;;;;;;;0.67;0.00;;;;;9.51;74.36;99710.56;4976827;28;45378;-51
2023/12/31 08:28:50;;;;;;;;;1.33;1.00;;;;;9.51;74.47;99710.56;4976899;28;45375;-51
2023/12/31 08:31:16;;;;;;;;;0.00;0.00;;;;;9.51;74.28;99710.56;4976648;28;45347;-51
2023/12/31 08:33:42;;;;;;;;;3.00;0.00;;;;;9.54;74.48;99696.97;4976483;28;45377;-45
2023/12/31 08:36:07;;;;;;;;;0.00;0.00;;;;;9.45;74.05;99711.22;4976534;28;45378;-53
2023/12/31 08:38:33;;;;;;;;;1.00;0.00;;;;;9.62;74.75;99728.00;4976677;28;45319;-50
2023/12/31 08:40:59;;;;;;;;;1.00;1.00;;;;;9.50;73.92;99711.56;4976484;28;45473;-50
2023/12/31 08:43:24;;;;;;;;;0.67;0.67;;;;;9.62;74.19;99726.19;4976577;28;45296;-44
2023/12/31 08:45:51;;;;;;;;;0.00;0.00;;;;;9.68;73.79;99738.78;4976518;28;45270;-45
2023/12/31 08:48:17;;;;;;;;;0.33;0.00;;;;;9.61;73.87;99735.13;4976898;28;45412;-53
2023/12/31 08:50:43;;;;;;;;;1.00;0.00;;;;;9.73;73.76;99764.84;4976448;28;45508;-50
2023/12/31 08:53:09;;;;;;;;;0.00;0.00;;;;;9.72;73.88;99756.03;4976197;28;45479;-54
2023/12/31 08:55:34;;;;;;;;;3.00;0.00;;;;;9.81;74.06;99766.66;4976594;28;45364;-51
2023/12/31 08:57:59;;;;;;;;;1.67;0.67;;;;;9.82;73.57;99763.88;4980088;28;45308;-53
2023/12/31 09:00:24;;;;;;;;;0.00;0.00;;;;;9.91;73.23;99777.97;4979629;28;45306;-53
2023/12/31 09:02:50;;;;;;;;;0.33;0.33;;;;;9.95;73.25;99779.31;4979845;28;45458;-47
2023/12/31 09:05:15;;;;;;;;;0.00;0.00;;;;;9.96;73.18;99771.16;4979991;28;45439;-53
2023/12/31 09:07:41;;;;;;;;;3.67;0.67;;;;;9.93;72.88;99765.34;4980020;28;45438;-52
2023/12/31 09:10:07;;;;;;;;;5.00;1.00;;;;;9.89;72.69;99764.00;4979495;28;45383;-50
2023/12/31 09:12:32;;;;;;;;;0.00;0.00;;;;;10.15;72.65;99785.09;4979665;28;45450;-46
2023/12/31 09:14:58;;;;;;;;;3.00;0.33;;;;;10.20;72.32;99785.44;4979578;28;45435;-43
2023/12/31 09:17:24;;;;;;;;;0.00;0.00;;;;;10.33;72.76;99787.63;4979812;28;45442;-44
2023/12/31 09:19:49;;;;;;;;;2.00;0.00;;;;;10.61;71.48;99802.16;4979523;28;45434;-45
2023/12/31 09:22:14;;;;;;;;;2.00;1.00;;;;;11.04;71.04;99807.19;4979542;28;45354;-45
2023/12/31 09:24:40;;;;;;;;;2.00;0.33;;;;;11.36;69.67;99801.72;4979346;28;45976;-48
2023/12/31 09:27:08;;;;;;;;;2.33;0.67;;;;;11.88;67.83;99811.75;4979815;28;45416;-44
2023/12/31 09:29:35;;;;;;;;;3.67;0.00;;;;;12.31;68.14;99813.91;4978058;28;45438;-48
2023/12/31 09:32:00;;;;;;;;;1.00;1.00;;;;;12.27;66.50;99793.94;4979396;28;45320;-46
2023/12/31 09:34:26;;;;;;;;;1.67;0.00;;;;;12.16;66.82;99820.00;4978135;28;45332;-45
2023/12/31 09:36:51;;;;;;;;;6.00;1.00;;;;;11.99;66.57;99810.50;4979467;28;45426;-46
2023/12/31 09:39:17;;;;;;;;;8.00;0.33;;;;;11.99;67.26;99823.81;4979356;28;46018;-44
2023/12/31 09:41:44;;;;;;;;;2.00;2.00;;;;;12.20;66.54;99817.81;4979363;28;45358;-45
2023/12/31 09:44:12;;;;;;;;;2.00;1.00;;;;;13.09;64.86;99826.75;4979535;28;45374;-56
2023/12/31 09:46:38;;;;;;;;;4.00;1.00;;;;;14.11;63.33;99832.00;4979446;28;45347;-46
2023/12/31 09:49:06;;;;;;;;;4.00;2.00;;;;;14.97;59.76;99835.38;4978898;28;46474;-44
2023/12/31 09:51:32;;;;;;;;;1.00;1.00;;;;;15.51;59.38;99793.56;4979189;28;45248;-46
2023/12/31 09:53:59;;;;;;;;;0.00;0.00;;;;;15.76;55.63;99818.00;4979168;28;45460;-46
2023/12/31 09:56:27;;;;;;;;;2.00;0.00;;;;;15.17;56.92;99803.34;4979160;28;45403;-46
2023/12/31 09:58:55;;;;;;;;;1.67;1.33;;;;;14.93;59.91;99825.25;4978846;28;45384;-45
2023/12/31 10:01:24;;;;;;;;;1.25;0.75;;;;;14.53;57.49;99779.47;4978867;28;45409;-47
2023/12/31 10:03:50;;;;;;;;;3.67;0.67;;;;;15.05;57.39;99830.88;4978929;28;45406;-46
2023/12/31 10:06:16;;;;;;;;;1.00;1.00;;;;;15.78;57.34;99821.28;4979198;28;45336;-48
2023/12/31 10:08:43;;;;;;;;;4.00;1.00;;;;;16.32;54.75;99831.06;4977812;28;45753;-48
2023/12/31 10:11:09;;;;;;;;;2.00;0.00;;;;;15.57;55.63;99824.09;4978892;28;45332;-45
2023/12/31 10:13:34;;;;;;;;;1.00;1.00;;;;;14.98;55.21;99825.47;4978854;28;45655;-44
2023/12/31 10:16:10;;;;;;;;;2.00;2.00;;;;;14.97;56.08;99824.66;4979028;28;45309;-46
2023/12/31 10:18:35;;;;;;;;;1.00;0.00;;;;;15.07;55.40;99812.75;4978498;28;46587;-44
2023/12/31 10:21:01;;;;;;;;;1.00;1.00;;;;;15.03;55.74;99828.38;4978863;28;45479;-44
2023/12/31 10:23:26;;;;;;;;;3.75;1.25;;;;;15.04;55.82;99840.75;4978418;28;47433;-46
2023/12/31 10:25:51;;;;;;;;;1.50;1.00;;;;;15.13;55.14;99836.91;4978900;28;45324;-45
2023/12/31 10:28:17;;;;;;;;;1.75;1.75;;;;;15.16;55.70;99824.94;4978478;28;51341;-45
2023/12/31 10:30:43;;;;;;;;;0.25;0.00;;;;;15.57;55.24;99832.13;4978716;28;45338;-46
2023/12/31 10:33:13;;;;;;;;;10.00;3.00;;;;;15.73;54.29;99834.47;4977170;28;45337;-48
2023/12/31 10:35:39;;;;;;;;;3.50;2.00;;;;;15.94;53.34;99814.72;4978551;28;45510;-44
2023/12/31 10:38:05;;;;;;;;;1.00;1.00;;;;;15.30;53.54;99802.56;4978193;28;45332;-47
2023/12/31 10:40:33;;;;;;;;;4.50;2.75;;;;;14.82;54.50;99825.78;4978297;28;45310;-46
2023/12/31 10:42:58;;;;;;;;;4.33;3.00;;;;;14.45;56.91;99830.44;4978566;28;45350;-43
2023/12/31 10:45:25;;;;;;;;;3.33;1.33;;;;;13.96;57.97;99820.56;4978470;28;45359;-43
2023/12/31 10:47:53;;;;;;;;;2.00;0.67;;;;;13.60;57.83;99842.81;4978142;28;46987;-44
2023/12/31 10:50:28;;;;;;;;;3.00;2.00;;;;;13.30;58.49;99822.50;4978036;28;45389;-45
2023/12/31 10:52:57;;;;;;;;;2.00;0.00;;;;;13.13;59.60;99821.84;4978165;28;45394;-43
2023/12/31 10:55:26;;;;;;;;;5.00;1.00;;;;;12.98;59.89;99821.88;4978171;28;45502;-44
2023/12/31 10:57:52;;;;;;;;;5.67;1.67;;;;;13.07;60.13;99818.09;4977901;28;46187;-45
2023/12/31 11:00:19;;;;;;;;;2.67;1.33;;;;;13.41;59.92;99811.34;4978054;28;45230;-43
2023/12/31 11:02:45;;;;;;;;;6.33;2.67;;;;;14.19;58.42;99794.44;4978160;28;45352;-42
2023/12/31 11:05:13;;;;;;;;;6.67;4.33;;;;;15.16;55.66;99798.97;4978197;28;45387;-44
2023/12/31 11:07:39;;;;;;;;;4.67;2.33;;;;;15.36;54.46;99780.31;4977807;28;47411;-45
2023/12/31 11:10:07;;;;;;;;;3.33;1.00;;;;;16.29;53.66;99804.63;4977590;28;45466;-44
2023/12/31 11:12:33;;;;;;;;;3.75;1.00;;;;;17.39;49.46;99784.13;4978049;28;45505;-44
2023/12/31 11:15:07;;;;;;;;;5.75;2.00;;;;;18.19;48.31;99770.97;4978245;28;45789;-45
2023/12/31 11:17:56;;;;;;;;;4.75;2.00;;;;;18.74;44.96;99762.19;4977536;28;45648;-44
2023/12/31 11:20:45;;;;;;;;;4.50;2.00;;;;;19.08;46.81;99782.34;4976731;28;45377;-43
2023/12/31 11:23:38;;;;;;;;;1.25;1.25;;;;;19.39;46.40;99772.44;4977871;28;45444;-44
2023/12/31 11:26:06;;;;;;;;;5.00;1.75;;;;;19.56;42.30;99783.41;4977928;28;45501;-45
2023/12/31 11:28:33;;;;;;;;;5.50;3.00;;;;;19.54;42.38;99778.22;4977505;28;46111;-45